Time;durP1;ratioP1;P1;durP2;ratioP2;P2;SDS_P1;SDS_P2;PMS_P1;PMS_P2;Temp;Humidity;BMP_temperature;BMP_pressure;BME280_temperature;BME280_humidity;BME280_pressure;Samples;Min_cycle;Max_cycle;Signal;HPM_P1;HPM_P2
2022/12/29 00:00:16;;;;;;;;;;;21.40;35.80;;;;;;466275;255;2016;-43
2022/12/29 00:02:18;;;;;;;;;;;21.40;35.80;;;;;;473565;243;2344;-43
2022/12/29 00:04:19;;;;;;;;;;;21.40;35.70;;;;;;491104;242;2325;-44
2022/12/29 00:06:20;;;;;;;;;;;21.40;35.80;;;;;;491035;241;2094;-40
2022/12/29 00:08:38;;;;;;;;;;;21.30;35.80;;;;;;491257;241;2050;-43
2022/12/29 00:10:24;;;;;;;;;;;21.30;35.80;;;;;;490031;242;2156;-40
2022/12/29 00:15:36;;;;;;;;;;;21.30;35.80;;;;;;491236;241;2247;-43
2022/12/29 00:16:49;;;;;;;;;;;21.30;35.80;;;;;;491211;242;2113;-44
2022/12/29 00:18:50;;;;;;;;;;;21.30;35.80;;;;;;491195;241;1947;-40
2022/12/29 00:35:10;;;;;;;;;;;21.30;35.80;;;;;;466163;255;2148;-43
2022/12/29 00:37:12;;;;;;;;;;;21.40;35.80;;;;;;466316;255;1995;-40
2022/12/29 00:44:06;;;;;;;;;;;21.40;35.80;;;;;;466359;255;1883;-44
2022/12/29 00:46:08;;;;;;;;;;;21.30;35.70;;;;;;466295;255;2009;-43
2022/12/29 00:48:10;;;;;;;;;;;21.30;35.80;;;;;;466434;255;1889;-40
2022/12/29 00:50:12;;;;;;;;;;;21.30;35.70;;;;;;466501;255;2507;-44
2022/12/29 00:52:13;;;;;;;;;;;21.30;35.70;;;;;;466315;255;1920;-41
2022/12/29 00:54:14;;;;;;;;;;;21.30;35.70;;;;;;466435;255;2035;-43
2022/12/29 00:56:16;;;;;;;;;;;21.40;35.80;;;;;;466282;255;2237;-43
2022/12/29 00:58:17;;;;;;;;;;;21.30;35.70;;;;;;466507;255;3620;-42
2022/12/29 01:00:18;;;;;;;;;;;21.30;35.80;;;;;;466587;255;1587;-41
2022/12/29 01:02:23;;;;;;;;;;;21.30;35.80;;;;;;466527;255;1804;-43
2022/12/29 01:04:25;;;;;;;;;;;21.30;35.80;;;;;;480189;243;1717;-43
2022/12/29 01:06:27;;;;;;;;;;;21.30;35.80;;;;;;491487;242;2660;-41
2022/12/29 01:08:28;;;;;;;;;;;21.30;35.80;;;;;;491409;242;2179;-43
2022/12/29 01:10:30;;;;;;;;;;;21.30;35.90;;;;;;491521;241;2093;-42
2022/12/29 01:12:44;;;;;;;;;;;21.30;36.00;;;;;;491511;241;2514;-42
2022/12/29 01:14:45;;;;;;;;;;;21.20;35.90;;;;;;491419;242;2150;-44
2022/12/29 01:16:47;;;;;;;;;;;21.30;35.90;;;;;;491286;241;2180;-43
2022/12/29 01:18:49;;;;;;;;;;;21.30;35.80;;;;;;491296;242;1904;-43
2022/12/29 01:20:50;;;;;;;;;;;21.30;35.80;;;;;;491081;242;2571;-43
2022/12/29 01:22:52;;;;;;;;;;;21.30;35.80;;;;;;491048;242;2467;-43
2022/12/29 01:24:54;;;;;;;;;;;21.30;35.80;;;;;;491174;241;1956;-43
2022/12/29 01:26:55;;;;;;;;;;;21.30;35.90;;;;;;491072;241;1866;-44
2022/12/29 01:28:57;;;;;;;;;;;21.30;35.90;;;;;;491260;241;1943;-44
2022/12/29 01:30:58;;;;;;;;;;;21.30;35.80;;;;;;491148;241;2880;-43
2022/12/29 01:33:00;;;;;;;;;;;21.30;35.80;;;;;;491174;241;1690;-43
2022/12/29 01:35:01;;;;;;;;;;;21.30;35.80;;;;;;491261;241;2022;-43
2022/12/29 01:37:02;;;;;;;;;;;21.30;35.80;;;;;;491265;242;2316;-43
2022/12/29 01:39:04;;;;;;;;;;;21.30;35.80;;;;;;491278;241;2002;-44
2022/12/29 01:41:05;;;;;;;;;;;21.20;35.80;;;;;;491395;241;1866;-43
2022/12/29 01:43:07;;;;;;;;;;;21.20;35.90;;;;;;491307;241;2140;-40
2022/12/29 01:45:08;;;;;;;;;;;21.30;35.90;;;;;;491258;241;2852;-43
2022/12/29 01:47:11;;;;;;;;;;;21.30;35.90;;;;;;491193;242;2098;-40
2022/12/29 01:49:13;;;;;;;;;;;21.30;35.90;;;;;;491312;241;2308;-43
2022/12/29 01:51:14;;;;;;;;;;;21.30;35.90;;;;;;491355;241;2178;-43
2022/12/29 01:53:15;;;;;;;;;;;21.30;35.90;;;;;;491319;241;1719;-42
2022/12/29 01:55:17;;;;;;;;;;;21.30;35.90;;;;;;491359;241;2301;-42
2022/12/29 01:57:18;;;;;;;;;;;21.20;35.90;;;;;;491233;242;2203;-43
2022/12/29 01:59:20;;;;;;;;;;;21.30;35.90;;;;;;491282;242;1667;-43
2022/12/29 02:01:22;;;;;;;;;;;21.30;35.80;;;;;;491220;241;2998;-43
2022/12/29 02:03:23;;;;;;;;;;;21.30;35.90;;;;;;491318;242;1828;-43
2022/12/29 02:05:24;;;;;;;;;;;21.30;35.90;;;;;;491326;242;2239;-41
2022/12/29 02:07:26;;;;;;;;;;;21.20;35.80;;;;;;491384;241;2290;-43
2022/12/29 02:09:27;;;;;;;;;;;21.20;35.90;;;;;;491311;241;2441;-41
2022/12/29 02:11:29;;;;;;;;;;;21.20;35.80;;;;;;491391;241;2098;-43
2022/12/29 02:13:30;;;;;;;;;;;21.20;35.90;;;;;;491261;242;2322;-44
2022/12/29 02:15:32;;;;;;;;;;;21.30;35.90;;;;;;491186;241;2268;-44
2022/12/29 02:17:33;;;;;;;;;;;21.20;35.90;;;;;;491170;242;2235;-43
2022/12/29 02:19:35;;;;;;;;;;;21.30;35.90;;;;;;491187;242;1932;-43
2022/12/29 02:21:39;;;;;;;;;;;21.30;35.80;;;;;;491206;241;2146;-44
2022/12/29 02:23:41;;;;;;;;;;;21.30;35.80;;;;;;491280;241;2020;-41
2022/12/29 02:25:42;;;;;;;;;;;21.30;35.80;;;;;;491064;242;1786;-44
2022/12/29 02:27:43;;;;;;;;;;;21.30;35.90;;;;;;491234;241;1707;-43
2022/12/29 02:29:45;;;;;;;;;;;21.20;35.90;;;;;;491268;241;2689;-44
2022/12/29 02:31:46;;;;;;;;;;;21.20;35.90;;;;;;491168;241;2103;-44
2022/12/29 02:33:48;;;;;;;;;;;21.30;35.90;;;;;;491168;241;2865;-43
2022/12/29 02:35:49;;;;;;;;;;;21.20;35.90;;;;;;491300;241;2204;-43
2022/12/29 02:37:51;;;;;;;;;;;21.20;35.90;;;;;;491221;241;1934;-43
2022/12/29 02:39:52;;;;;;;;;;;21.20;35.90;;;;;;491402;241;2045;-43
2022/12/29 02:41:53;;;;;;;;;;;21.20;35.90;;;;;;491343;241;2162;-44
2022/12/29 02:43:56;;;;;;;;;;;21.20;35.90;;;;;;491326;241;1737;-40
2022/12/29 02:45:57;;;;;;;;;;;21.20;35.90;;;;;;491172;242;1860;-44
2022/12/29 02:47:59;;;;;;;;;;;21.20;35.90;;;;;;491199;242;2009;-44
2022/12/29 02:50:00;;;;;;;;;;;21.20;35.90;;;;;;491199;241;2489;-43
2022/12/29 02:52:01;;;;;;;;;;;21.20;35.80;;;;;;491146;242;2853;-40
2022/12/29 02:56:23;;;;;;;;;;;21.30;35.90;;;;;;491125;242;2156;-44
2022/12/29 02:58:25;;;;;;;;;;;21.20;35.80;;;;;;491210;241;2264;-43
2022/12/29 03:00:26;;;;;;;;;;;21.20;35.90;;;;;;491011;242;1847;-42
2022/12/29 03:02:27;;;;;;;;;;;21.20;35.90;;;;;;491239;241;2669;-43
2022/12/29 03:04:29;;;;;;;;;;;21.20;35.90;;;;;;491216;241;2039;-43
2022/12/29 03:06:31;;;;;;;;;;;21.30;35.90;;;;;;491237;242;1842;-43
2022/12/29 03:08:36;;;;;;;;;;;21.40;35.60;;;;;;491278;241;2037;-40
2022/12/29 03:10:37;;;;;;;;;;;21.70;35.20;;;;;;491168;242;2393;-44
2022/12/29 03:17:17;;;;;;;;;;;22.20;34.40;;;;;;491203;242;2157;-43
2022/12/29 03:19:18;;;;;;;;;;;22.30;34.20;;;;;;491253;241;1838;-42
2022/12/29 03:21:21;;;;;;;;;;;22.40;34.10;;;;;;491166;241;2439;-43
2022/12/29 03:23:23;;;;;;;;;;;22.40;33.90;;;;;;491316;242;1795;-44
2022/12/29 03:25:24;;;;;;;;;;;22.50;33.90;;;;;;491287;242;1990;-43
2022/12/29 03:27:25;;;;;;;;;;;22.50;33.70;;;;;;491171;241;1859;-44
2022/12/29 03:29:27;;;;;;;;;;;22.60;33.70;;;;;;491253;241;2015;-43
2022/12/29 03:31:28;;;;;;;;;;;22.60;33.60;;;;;;491012;242;1881;-41
2022/12/29 03:33:30;;;;;;;;;;;22.70;33.50;;;;;;491163;241;1674;-40
2022/12/29 03:35:31;;;;;;;;;;;22.70;33.50;;;;;;491122;242;1894;-44
2022/12/29 03:37:33;;;;;;;;;;;22.70;33.40;;;;;;491034;242;2184;-40
2022/12/29 03:39:34;;;;;;;;;;;22.80;33.40;;;;;;491217;241;2085;-43
2022/12/29 03:41:36;;;;;;;;;;;22.80;33.30;;;;;;491221;241;1809;-43
2022/12/29 03:43:37;;;;;;;;;;;22.90;33.30;;;;;;491297;241;2078;-41
2022/12/29 03:45:38;;;;;;;;;;;22.90;33.20;;;;;;491207;242;1881;-41
2022/12/29 03:47:40;;;;;;;;;;;22.90;33.10;;;;;;491312;241;1751;-43
2022/12/29 03:49:43;;;;;;;;;;;23.00;33.20;;;;;;491300;242;1840;-43
2022/12/29 03:51:43;;;;;;;;;;;23.00;33.10;;;;;;491027;241;1985;-40
2022/12/29 03:53:44;;;;;;;;;;;23.00;33.10;;;;;;491366;241;2414;-40
2022/12/29 03:55:45;;;;;;;;;;;23.00;33.00;;;;;;491264;242;1670;-43
2022/12/29 03:57:47;;;;;;;;;;;23.00;33.00;;;;;;491268;241;2206;-43
2022/12/29 03:59:49;;;;;;;;;;;23.10;33.00;;;;;;491310;241;2246;-43
2022/12/29 04:01:50;;;;;;;;;;;23.10;33.00;;;;;;491265;241;2383;-42
2022/12/29 04:03:51;;;;;;;;;;;23.10;33.00;;;;;;491246;242;2680;-43
2022/12/29 04:05:53;;;;;;;;;;;23.10;32.90;;;;;;491286;241;2161;-44
2022/12/29 04:07:54;;;;;;;;;;;23.20;32.90;;;;;;491289;242;2032;-44
2022/12/29 04:09:55;;;;;;;;;;;23.10;32.90;;;;;;491360;242;2283;-44
2022/12/29 04:11:57;;;;;;;;;;;23.20;32.90;;;;;;491190;242;2618;-43
2022/12/29 04:13:58;;;;;;;;;;;23.20;32.90;;;;;;491365;241;2097;-43
2022/12/29 04:15:59;;;;;;;;;;;23.20;32.80;;;;;;491233;242;2022;-43
2022/12/29 04:18:01;;;;;;;;;;;23.20;32.80;;;;;;491199;242;2759;-44
2022/12/29 04:22:23;;;;;;;;;;;23.30;32.70;;;;;;491261;242;2402;-40
2022/12/29 04:24:24;;;;;;;;;;;23.30;32.70;;;;;;491350;241;2179;-43
2022/12/29 04:26:26;;;;;;;;;;;23.30;32.70;;;;;;491272;242;1952;-44
2022/12/29 04:28:27;;;;;;;;;;;23.30;32.70;;;;;;491357;241;1863;-43
2022/12/29 04:30:29;;;;;;;;;;;23.30;32.70;;;;;;491345;242;2184;-43
2022/12/29 04:32:30;;;;;;;;;;;23.30;32.60;;;;;;491357;242;1978;-43
2022/12/29 04:34:31;;;;;;;;;;;23.40;32.60;;;;;;491431;242;2006;-43
2022/12/29 04:36:33;;;;;;;;;;;23.40;32.70;;;;;;491459;242;2195;-43
2022/12/29 04:38:34;;;;;;;;;;;23.40;32.70;;;;;;491445;242;1980;-40
2022/12/29 04:40:35;;;;;;;;;;;23.40;32.60;;;;;;491364;242;1892;-44
2022/12/29 04:42:37;;;;;;;;;;;23.40;32.60;;;;;;491235;242;1988;-44
2022/12/29 04:44:38;;;;;;;;;;;23.40;32.60;;;;;;491230;242;2820;-44
2022/12/29 04:46:39;;;;;;;;;;;23.40;32.60;;;;;;491320;241;1886;-41
2022/12/29 04:48:41;;;;;;;;;;;23.40;32.60;;;;;;491470;241;2071;-43
2022/12/29 04:50:42;;;;;;;;;;;23.50;32.60;;;;;;490885;242;2078;-43
2022/12/29 04:52:44;;;;;;;;;;;23.50;32.60;;;;;;491267;242;1890;-44
2022/12/29 04:54:45;;;;;;;;;;;23.50;32.50;;;;;;491326;241;2004;-41
2022/12/29 04:56:47;;;;;;;;;;;23.50;32.60;;;;;;491254;241;2568;-44
2022/12/29 04:58:48;;;;;;;;;;;23.50;32.50;;;;;;491115;241;2093;-43
2022/12/29 05:00:49;;;;;;;;;;;23.50;32.50;;;;;;491224;241;2327;-44
2022/12/29 05:02:51;;;;;;;;;;;23.50;32.50;;;;;;491156;242;1925;-43
2022/12/29 05:04:52;;;;;;;;;;;23.50;32.50;;;;;;491297;241;2141;-43
2022/12/29 05:06:54;;;;;;;;;;;23.50;32.60;;;;;;491308;242;2209;-43
2022/12/29 05:08:55;;;;;;;;;;;23.40;32.60;;;;;;491292;242;1998;-43
2022/12/29 05:10:57;;;;;;;;;;;23.20;33.00;;;;;;491352;241;1979;-43
2022/12/29 05:12:58;;;;;;;;;;;22.90;33.30;;;;;;491249;241;2057;-44
2022/12/29 05:14:59;;;;;;;;;;;22.80;33.60;;;;;;491347;241;2047;-43
2022/12/29 05:17:01;;;;;;;;;;;22.60;33.90;;;;;;491324;241;3137;-43
2022/12/29 05:19:02;;;;;;;;;;;22.50;34.10;;;;;;491259;242;1971;-42
2022/12/29 05:21:04;;;;;;;;;;;22.40;34.30;;;;;;491221;241;2891;-43
2022/12/29 05:23:05;;;;;;;;;;;22.30;34.50;;;;;;491220;241;2137;-41
2022/12/29 05:25:06;;;;;;;;;;;22.20;34.60;;;;;;491240;241;2297;-41
2022/12/29 05:27:08;;;;;;;;;;;22.20;34.60;;;;;;491045;241;2847;-43
2022/12/29 05:29:09;;;;;;;;;;;22.20;34.70;;;;;;491115;242;1945;-41
2022/12/29 05:31:11;;;;;;;;;;;22.10;34.70;;;;;;491048;242;1926;-43
2022/12/29 05:33:12;;;;;;;;;;;22.10;34.80;;;;;;491107;242;1950;-40
2022/12/29 05:35:14;;;;;;;;;;;22.10;34.90;;;;;;491141;242;1830;-43
2022/12/29 05:37:15;;;;;;;;;;;22.00;35.00;;;;;;491017;242;2136;-43
2022/12/29 05:39:17;;;;;;;;;;;22.00;35.10;;;;;;491210;242;2032;-43
2022/12/29 05:41:18;;;;;;;;;;;22.00;35.10;;;;;;491196;242;2586;-43
2022/12/29 05:43:20;;;;;;;;;;;22.00;35.00;;;;;;491406;241;2777;-42
2022/12/29 05:45:21;;;;;;;;;;;22.00;35.10;;;;;;491327;241;2180;-41
2022/12/29 05:47:22;;;;;;;;;;;21.90;35.10;;;;;;491303;241;1897;-44
2022/12/29 05:49:27;;;;;;;;;;;21.90;35.20;;;;;;491369;241;2241;-42
2022/12/29 05:51:29;;;;;;;;;;;21.90;35.20;;;;;;491341;241;1961;-43
2022/12/29 05:53:31;;;;;;;;;;;21.80;35.20;;;;;;491342;241;1938;-43
2022/12/29 05:55:32;;;;;;;;;;;21.80;35.30;;;;;;491363;241;1878;-43
2022/12/29 05:57:33;;;;;;;;;;;21.80;35.30;;;;;;491361;241;2145;-40
2022/12/29 05:59:35;;;;;;;;;;;21.80;35.30;;;;;;491304;241;2492;-43
2022/12/29 06:01:36;;;;;;;;;;;21.80;35.30;;;;;;491321;241;1933;-43
2022/12/29 06:03:38;;;;;;;;;;;21.80;35.40;;;;;;491300;242;2479;-40
2022/12/29 06:05:39;;;;;;;;;;;21.70;35.30;;;;;;491376;241;1918;-42
2022/12/29 06:07:41;;;;;;;;;;;21.70;35.30;;;;;;491305;242;2187;-43
2022/12/29 06:09:43;;;;;;;;;;;21.70;35.40;;;;;;491242;241;1918;-43
2022/12/29 06:11:44;;;;;;;;;;;21.70;35.50;;;;;;491295;242;2095;-43
2022/12/29 06:13:46;;;;;;;;;;;21.70;35.50;;;;;;491219;242;2674;-43
2022/12/29 06:15:48;;;;;;;;;;;21.60;35.50;;;;;;491242;242;1726;-43
2022/12/29 06:17:49;;;;;;;;;;;21.70;35.50;;;;;;491347;241;2554;-43
2022/12/29 06:19:51;;;;;;;;;;;21.60;35.50;;;;;;491354;241;2182;-43
2022/12/29 06:21:52;;;;;;;;;;;21.70;35.50;;;;;;491164;242;1973;-43
2022/12/29 06:23:53;;;;;;;;;;;21.60;35.50;;;;;;491339;241;1792;-42
2022/12/29 06:25:55;;;;;;;;;;;21.70;35.60;;;;;;491215;241;3355;-42
2022/12/29 06:27:57;;;;;;;;;;;21.60;35.50;;;;;;491169;242;2342;-42
2022/12/29 06:29:59;;;;;;;;;;;21.60;35.50;;;;;;491333;241;1886;-44
2022/12/29 06:32:00;;;;;;;;;;;21.60;35.50;;;;;;491094;242;1764;-44
2022/12/29 06:34:02;;;;;;;;;;;21.60;35.50;;;;;;491397;241;2439;-40
2022/12/29 06:36:03;;;;;;;;;;;21.60;35.50;;;;;;491078;242;2397;-41
2022/12/29 06:38:05;;;;;;;;;;;21.50;35.50;;;;;;491171;242;2196;-41
2022/12/29 06:40:06;;;;;;;;;;;21.60;35.60;;;;;;491322;242;2069;-43
2022/12/29 06:42:08;;;;;;;;;;;21.50;35.60;;;;;;491261;241;1979;-40
2022/12/29 06:44:09;;;;;;;;;;;21.60;35.60;;;;;;491332;241;2089;-43
2022/12/29 06:46:11;;;;;;;;;;;21.60;35.60;;;;;;491239;241;2461;-43
2022/12/29 06:48:12;;;;;;;;;;;21.50;35.60;;;;;;491406;241;2085;-40
2022/12/29 06:50:14;;;;;;;;;;;21.50;35.60;;;;;;491242;242;2170;-39
2022/12/29 06:52:16;;;;;;;;;;;21.60;35.50;;;;;;491149;241;2190;-43
2022/12/29 06:54:18;;;;;;;;;;;21.50;35.60;;;;;;491410;241;1974;-43
2022/12/29 06:56:20;;;;;;;;;;;21.50;35.60;;;;;;491163;242;2192;-43
2022/12/29 06:58:21;;;;;;;;;;;21.50;35.60;;;;;;491283;242;2204;-42
2022/12/29 07:00:22;;;;;;;;;;;21.50;35.60;;;;;;491159;242;1890;-42
2022/12/29 07:02:25;;;;;;;;;;;21.50;35.70;;;;;;491015;241;2399;-42
2022/12/29 07:04:26;;;;;;;;;;;21.50;35.70;;;;;;491264;241;1804;-40
2022/12/29 07:06:28;;;;;;;;;;;21.40;35.70;;;;;;491007;241;1838;-43
2022/12/29 07:08:30;;;;;;;;;;;21.40;35.70;;;;;;491130;242;2305;-43
2022/12/29 07:10:31;;;;;;;;;;;21.50;35.60;;;;;;491290;241;1948;-44
2022/12/29 07:12:33;;;;;;;;;;;21.50;35.50;;;;;;491072;242;1913;-40
2022/12/29 07:14:34;;;;;;;;;;;21.50;35.50;;;;;;491230;241;2085;-40
2022/12/29 07:16:36;;;;;;;;;;;21.50;35.40;;;;;;491234;241;2224;-43
2022/12/29 07:18:37;;;;;;;;;;;21.50;35.40;;;;;;491175;242;2380;-40
2022/12/29 07:20:38;;;;;;;;;;;21.50;35.40;;;;;;491136;242;1957;-44
2022/12/29 07:22:40;;;;;;;;;;;21.50;35.40;;;;;;491148;242;2455;-43
2022/12/29 07:24:42;;;;;;;;;;;21.50;35.30;;;;;;491381;241;2328;-43
2022/12/29 07:26:44;;;;;;;;;;;21.50;35.30;;;;;;491266;241;2577;-41
2022/12/29 07:28:46;;;;;;;;;;;21.50;35.40;;;;;;491178;241;2965;-41
2022/12/29 07:30:47;;;;;;;;;;;21.50;35.40;;;;;;491230;242;2556;-43
2022/12/29 07:32:49;;;;;;;;;;;21.40;35.30;;;;;;491228;242;2150;-41
2022/12/29 07:34:50;;;;;;;;;;;21.50;35.30;;;;;;491216;242;2069;-43
2022/12/29 07:36:53;;;;;;;;;;;21.50;35.30;;;;;;491240;241;2356;-43
2022/12/29 07:38:55;;;;;;;;;;;21.50;35.30;;;;;;491249;242;2208;-40
2022/12/29 07:40:56;;;;;;;;;;;21.50;35.30;;;;;;491108;242;2112;-43
2022/12/29 07:42:59;;;;;;;;;;;21.50;35.20;;;;;;491313;241;2007;-44
2022/12/29 07:45:00;;;;;;;;;;;21.50;35.20;;;;;;491208;241;2309;-40
2022/12/29 07:47:01;;;;;;;;;;;21.50;35.20;;;;;;491249;241;2055;-43
2022/12/29 07:49:03;;;;;;;;;;;21.50;35.10;;;;;;491080;242;2017;-39
2022/12/29 07:51:06;;;;;;;;;;;21.50;35.10;;;;;;491160;242;2494;-40
2022/12/29 07:53:07;;;;;;;;;;;21.50;35.20;;;;;;491072;242;2137;-42
2022/12/29 07:55:09;;;;;;;;;;;21.50;35.20;;;;;;491093;241;1747;-41
2022/12/29 07:57:11;;;;;;;;;;;21.50;35.10;;;;;;491108;241;2310;-43
2022/12/29 07:59:12;;;;;;;;;;;21.50;35.20;;;;;;491171;242;2699;-40
2022/12/29 08:01:14;;;;;;;;;;;21.40;35.10;;;;;;491194;242;2523;-43
2022/12/29 08:03:15;;;;;;;;;;;21.40;35.00;;;;;;491236;241;2110;-42
2022/12/29 08:05:17;;;;;;;;;;;21.50;35.10;;;;;;491232;241;2240;-43
2022/12/29 08:07:18;;;;;;;;;;;21.50;35.10;;;;;;491034;241;2593;-40
2022/12/29 08:09:20;;;;;;;;;;;21.50;35.10;;;;;;491204;242;2271;-42
2022/12/29 08:11:21;;;;;;;;;;;21.50;35.00;;;;;;491117;242;2179;-43
2022/12/29 08:13:23;;;;;;;;;;;21.50;35.00;;;;;;491262;242;1733;-42
2022/12/29 08:15:24;;;;;;;;;;;21.50;35.00;;;;;;491185;241;2416;-42
2022/12/29 08:17:26;;;;;;;;;;;21.50;34.90;;;;;;491124;242;2165;-41
2022/12/29 08:19:28;;;;;;;;;;;21.50;34.90;;;;;;491123;242;2121;-43
2022/12/29 08:21:29;;;;;;;;;;;21.50;34.90;;;;;;491002;242;2035;-44
2022/12/29 08:23:31;;;;;;;;;;;21.50;34.80;;;;;;491102;242;1822;-44
2022/12/29 08:25:32;;;;;;;;;;;21.50;34.90;;;;;;491265;242;1971;-40
2022/12/29 08:27:34;;;;;;;;;;;21.50;34.90;;;;;;491005;242;2938;-43
2022/12/29 08:29:35;;;;;;;;;;;21.50;34.90;;;;;;491220;241;2068;-42
2022/12/29 08:31:37;;;;;;;;;;;21.50;34.90;;;;;;491077;241;2182;-43
2022/12/29 08:33:39;;;;;;;;;;;21.50;34.90;;;;;;491118;242;1669;-43
2022/12/29 08:35:40;;;;;;;;;;;21.50;34.80;;;;;;491125;242;2401;-43
2022/12/29 08:37:41;;;;;;;;;;;21.50;34.70;;;;;;491109;242;3519;-43
2022/12/29 08:39:43;;;;;;;;;;;21.50;34.80;;;;;;491213;242;2281;-43
2022/12/29 08:41:45;;;;;;;;;;;21.50;34.80;;;;;;491418;241;1988;-41
2022/12/29 08:43:47;;;;;;;;;;;21.50;34.70;;;;;;491254;242;2133;-41
2022/12/29 08:45:48;;;;;;;;;;;21.50;34.80;;;;;;491274;241;2807;-43
2022/12/29 08:47:49;;;;;;;;;;;21.50;34.70;;;;;;491335;241;3363;-40
2022/12/29 08:49:51;;;;;;;;;;;21.50;34.80;;;;;;491280;241;1804;-44
2022/12/29 08:51:52;;;;;;;;;;;21.50;34.80;;;;;;491166;241;2572;-43
2022/12/29 08:53:55;;;;;;;;;;;21.50;34.70;;;;;;491158;242;2219;-44
2022/12/29 08:55:57;;;;;;;;;;;21.50;34.70;;;;;;491286;241;2425;-43
2022/12/29 08:57:59;;;;;;;;;;;21.50;34.70;;;;;;491111;242;2241;-44
2022/12/29 09:00:01;;;;;;;;;;;21.50;34.60;;;;;;491419;241;2891;-40
2022/12/29 09:02:02;;;;;;;;;;;21.50;34.60;;;;;;491172;241;2023;-40
2022/12/29 09:04:05;;;;;;;;;;;21.50;34.60;;;;;;491483;241;3001;-41
2022/12/29 09:06:07;;;;;;;;;;;21.50;34.60;;;;;;491206;241;2643;-43
2022/12/29 09:08:09;;;;;;;;;;;21.50;34.60;;;;;;491337;241;3083;-43
2022/12/29 09:10:10;;;;;;;;;;;21.50;34.60;;;;;;491307;242;2994;-43
2022/12/29 09:12:12;;;;;;;;;;;21.50;34.60;;;;;;491285;241;2686;-43
2022/12/29 09:14:14;;;;;;;;;;;21.50;34.70;;;;;;491247;242;1676;-40
2022/12/29 09:16:16;;;;;;;;;;;21.50;34.60;;;;;;491029;242;2489;-43
2022/12/29 09:18:17;;;;;;;;;;;21.40;34.60;;;;;;491142;241;2149;-43
2022/12/29 09:20:19;;;;;;;;;;;21.50;34.60;;;;;;491324;241;1813;-43
2022/12/29 09:22:21;;;;;;;;;;;21.50;34.60;;;;;;491328;241;2146;-40
2022/12/29 09:24:22;;;;;;;;;;;21.50;34.60;;;;;;491409;242;1856;-43
2022/12/29 09:26:25;;;;;;;;;;;21.50;34.60;;;;;;491234;242;2202;-43
2022/12/29 09:28:28;;;;;;;;;;;21.40;34.50;;;;;;491516;241;1916;-43
2022/12/29 09:30:29;;;;;;;;;;;21.50;34.50;;;;;;491509;243;2383;-41
2022/12/29 09:32:31;;;;;;;;;;;21.50;34.50;;;;;;491299;241;2552;-43
2022/12/29 09:34:32;;;;;;;;;;;21.50;34.50;;;;;;491586;242;1856;-42
2022/12/29 09:36:34;;;;;;;;;;;21.50;34.50;;;;;;491287;241;2686;-43
2022/12/29 09:38:35;;;;;;;;;;;21.50;34.40;;;;;;491517;241;2184;-44
2022/12/29 09:40:36;;;;;;;;;;;21.50;34.40;;;;;;491565;241;2221;-43
2022/12/29 09:42:38;;;;;;;;;;;21.50;34.30;;;;;;491375;242;1604;-43
2022/12/29 09:44:39;;;;;;;;;;;21.60;34.40;;;;;;491411;242;1728;-44
2022/12/29 09:46:41;;;;;;;;;;;21.50;34.30;;;;;;491426;241;2351;-40
2022/12/29 09:48:43;;;;;;;;;;;21.50;34.40;;;;;;491389;242;1810;-43
2022/12/29 09:50:44;;;;;;;;;;;21.60;34.30;;;;;;491312;241;1963;-40
2022/12/29 09:52:46;;;;;;;;;;;21.80;33.90;;;;;;491265;241;3035;-42
2022/12/29 09:54:51;;;;;;;;;;;22.00;33.70;;;;;;491391;242;2050;-43
2022/12/29 09:56:53;;;;;;;;;;;22.20;33.40;;;;;;491184;242;2184;-44
2022/12/29 09:58:54;;;;;;;;;;;22.30;33.00;;;;;;491331;241;2184;-44
2022/12/29 10:00:55;;;;;;;;;;;22.40;32.80;;;;;;491212;241;2424;-44
2022/12/29 10:02:56;;;;;;;;;;;22.50;32.60;;;;;;491228;242;2011;-43
2022/12/29 10:04:58;;;;;;;;;;;22.60;32.60;;;;;;491240;242;2565;-44
2022/12/29 10:06:59;;;;;;;;;;;22.60;32.60;;;;;;491237;241;2155;-44
2022/12/29 10:09:01;;;;;;;;;;;22.60;32.70;;;;;;491211;241;1668;-41
2022/12/29 10:11:02;;;;;;;;;;;22.40;32.80;;;;;;491287;242;2499;-44
2022/12/29 10:13:03;;;;;;;;;;;22.20;33.10;;;;;;491236;241;1926;-43
2022/12/29 10:15:05;;;;;;;;;;;22.10;33.30;;;;;;491251;241;1918;-44
2022/12/29 10:17:06;;;;;;;;;;;22.00;33.60;;;;;;491194;241;3510;-43
2022/12/29 10:19:08;;;;;;;;;;;21.90;33.70;;;;;;491244;242;2324;-43
2022/12/29 10:21:09;;;;;;;;;;;21.90;33.80;;;;;;491168;242;1698;-41
2022/12/29 10:23:10;;;;;;;;;;;21.90;33.80;;;;;;491314;241;1963;-43
2022/12/29 10:25:12;;;;;;;;;;;21.80;33.80;;;;;;491337;241;2047;-43
2022/12/29 10:27:13;;;;;;;;;;;21.80;33.80;;;;;;491150;241;2666;-40
2022/12/29 10:29:14;;;;;;;;;;;21.80;33.90;;;;;;491377;241;1852;-43
2022/12/29 10:31:19;;;;;;;;;;;21.80;33.90;;;;;;491059;242;2192;-43
2022/12/29 10:33:18;;;;;;;;;;;21.70;34.00;;;;;;491138;243;2781;-42
2022/12/29 10:35:20;;;;;;;;;;;21.70;34.00;;;;;;491275;242;2163;-43
2022/12/29 10:37:24;;;;;;;;;;;21.70;34.10;;;;;;491106;241;2098;-43
2022/12/29 10:39:24;;;;;;;;;;;21.70;34.00;;;;;;491234;243;2188;-41
2022/12/29 10:41:26;;;;;;;;;;;21.70;34.00;;;;;;491398;241;2054;-43
2022/12/29 10:43:28;;;;;;;;;;;21.70;34.00;;;;;;491329;242;1807;-43
2022/12/29 10:45:30;;;;;;;;;;;21.60;34.00;;;;;;491328;241;2056;-43
2022/12/29 10:47:31;;;;;;;;;;;21.60;34.10;;;;;;491195;242;3309;-42
2022/12/29 10:49:32;;;;;;;;;;;21.60;34.10;;;;;;491194;243;2225;-43
2022/12/29 10:51:34;;;;;;;;;;;21.60;34.00;;;;;;491272;242;1911;-43
2022/12/29 10:53:36;;;;;;;;;;;21.60;34.00;;;;;;491247;242;2482;-41
2022/12/29 10:55:37;;;;;;;;;;;21.60;34.00;;;;;;491244;242;1559;-43
2022/12/29 10:57:40;;;;;;;;;;;21.60;34.00;;;;;;491360;241;1671;-43
2022/12/29 10:59:41;;;;;;;;;;;21.60;34.10;;;;;;491250;241;2386;-43
2022/12/29 11:01:43;;;;;;;;;;;21.60;34.00;;;;;;491276;242;2902;-43
2022/12/29 11:03:45;;;;;;;;;;;21.60;34.10;;;;;;491152;242;3020;-43
2022/12/29 11:05:46;;;;;;;;;;;21.60;34.10;;;;;;491076;242;2260;-41
2022/12/29 11:07:48;;;;;;;;;;;21.60;34.10;;;;;;491265;241;1975;-43
2022/12/29 11:09:49;;;;;;;;;;;21.60;34.10;;;;;;491317;241;1953;-44
2022/12/29 11:11:51;;;;;;;;;;;21.60;34.00;;;;;;491419;241;1887;-43
2022/12/29 11:13:52;;;;;;;;;;;21.60;34.10;;;;;;491353;241;2139;-40
2022/12/29 11:15:53;;;;;;;;;;;21.60;34.10;;;;;;491310;242;2840;-43
2022/12/29 11:17:55;;;;;;;;;;;21.50;34.00;;;;;;491159;243;1929;-43
2022/12/29 11:19:56;;;;;;;;;;;21.50;34.00;;;;;;491211;242;2175;-40
2022/12/29 11:21:58;;;;;;;;;;;21.60;34.00;;;;;;491350;241;2148;-43
2022/12/29 11:23:59;;;;;;;;;;;21.50;34.00;;;;;;491187;242;1845;-43
2022/12/29 11:26:01;;;;;;;;;;;21.50;34.00;;;;;;491243;241;2513;-41
2022/12/29 11:28:03;;;;;;;;;;;21.50;34.00;;;;;;491115;242;1913;-41
2022/12/29 11:30:10;;;;;;;;;;;21.50;34.00;;;;;;491000;241;2102;-43
2022/12/29 11:32:08;;;;;;;;;;;21.60;34.00;;;;;;490662;242;2379;-43
2022/12/29 11:34:10;;;;;;;;;;;21.60;34.00;;;;;;491097;242;2255;-44
2022/12/29 11:36:12;;;;;;;;;;;21.50;34.00;;;;;;490988;242;1858;-43
2022/12/29 11:38:13;;;;;;;;;;;21.50;33.90;;;;;;491222;241;1688;-43
2022/12/29 11:40:15;;;;;;;;;;;21.50;34.00;;;;;;491149;242;2287;-43
2022/12/29 11:42:16;;;;;;;;;;;21.50;34.00;;;;;;491219;241;2122;-44
2022/12/29 11:44:18;;;;;;;;;;;21.50;34.00;;;;;;491198;242;1808;-43
2022/12/29 11:46:20;;;;;;;;;;;21.60;34.00;;;;;;491187;242;1949;-43
2022/12/29 11:48:21;;;;;;;;;;;21.50;33.90;;;;;;491303;242;2074;-44
2022/12/29 11:50:23;;;;;;;;;;;21.50;33.90;;;;;;491451;242;3236;-40
2022/12/29 11:52:24;;;;;;;;;;;21.60;33.90;;;;;;491358;241;2389;-40
2022/12/29 11:54:25;;;;;;;;;;;21.50;33.80;;;;;;491333;242;2236;-40
2022/12/29 11:56:28;;;;;;;;;;;21.60;34.00;;;;;;491427;242;2137;-43
2022/12/29 11:58:32;;;;;;;;;;;21.50;34.00;;;;;;491393;242;2065;-43
2022/12/29 12:00:31;;;;;;;;;;;21.60;33.90;;;;;;491078;242;2160;-43
2022/12/29 12:02:32;;;;;;;;;;;21.60;33.80;;;;;;491310;242;2964;-44
2022/12/29 12:04:34;;;;;;;;;;;21.50;33.80;;;;;;491303;241;2309;-44
2022/12/29 12:06:36;;;;;;;;;;;21.50;33.80;;;;;;491414;241;2852;-41
2022/12/29 12:08:37;;;;;;;;;;;21.50;33.90;;;;;;491182;242;1899;-43
2022/12/29 12:10:44;;;;;;;;;;;21.60;33.80;;;;;;491254;241;1995;-43
2022/12/29 12:12:44;;;;;;;;;;;21.60;33.80;;;;;;491165;242;2124;-39
2022/12/29 12:17:37;;;;;;;;;;;21.60;33.70;;;;;;477515;237;2654;-46
2022/12/29 12:19:36;;;;;;;;;;;21.70;33.70;;;;;;475667;250;2200;-43
2022/12/29 12:21:37;;;;;;;;;;;21.70;33.70;;;;;;475642;249;1707;-43
2022/12/29 12:23:39;;;;;;;;;;;21.70;33.70;;;;;;475749;249;1705;-43
2022/12/29 12:25:40;;;;;;;;;;;21.70;33.70;;;;;;475776;249;1710;-43
2022/12/29 12:27:41;;;;;;;;;;;21.70;33.60;;;;;;475747;249;1675;-43
2022/12/29 12:29:43;;;;;;;;;;;21.70;33.60;;;;;;475793;249;2147;-43
2022/12/29 12:31:44;;;;;;;;;;;21.70;33.60;;;;;;475753;249;1756;-44